NCAR-RAP Real-Time Weather Data

Output produced by METARs form (12 August 2020  17:27 UTC)
found at http://weather.rap.ucar.edu/surface/
 
KPVD 121651Z 18006KT 10SM SCT050 SCT150 BKN300 32/21 A3001 RMK AO2 SLP161 T03170206
KPVD 121551Z 32004KT 10SM FEW045 FEW070 SCT140 BKN300 32/20 A3001 RMK AO2 SLP163 ACSL NW T03220200
KPVD 121451Z 25003KT 10SM FEW035 SCT140 BKN300 31/22 A3002 RMK AO2 SLP165 T03060217 55000
KPVD 121351Z VRB06KT 10SM FEW015 FEW070 FEW220 BKN300 29/22 A3002 RMK AO2 SLP165 T02940217
KPVD 121251Z 27008KT 10SM BCFG FEW012 SCT220 BKN300 27/23 A3002 RMK AO2 SLP164 BCFG SW T02670233
KPVD 121246Z 25008KT 10SM BCFG SCT012 BKN220 27/23 A3002 RMK AO2
KPVD 121151Z 26006KT 10SM BCFG BKN010 BKN220 26/24 A3001 RMK AO2 SLP162 BCFG SW 60001 70001 T02560239 10256 20233 51010
KPVD 121141Z 25008KT 10SM BCFG BKN009 BKN220 26/24 A3001 RMK AO2 BCFG SW T02560239
KPVD 121051Z 23004KT 7SM BCFG FEW002 FEW110 SCT300 24/24 A2999 RMK AO2 SLP156 BCFG SW T02440239
KPVD 120951Z 22007KT 10SM FEW009 FEW045 SCT110 BKN150 24/22 A2998 RMK AO2 RAB16E45 SLP152 P0001 T02390222
KPVD 120927Z 23009KT 8SM -RA FEW017 SCT046 BKN110 25/23 A2998 RMK AO2 RAB16 P0001 T02500233
KPVD 120851Z AUTO 24008KT 10SM OVC016 26/23 A2998 RMK AO2 SLP153 T02560228 53002
KPVD 120751Z AUTO 21007KT 10SM OVC019 26/23 A2998 RMK AO2 SLP152 T02560228
KPVD 120723Z AUTO 22007KT 10SM BKN021 26/23 A2998 RMK AO2 T02560233
KPVD 120707Z AUTO 21009KT 10SM FEW025 25/23 A2997 RMK AO2 T02500228
KPVD 120651Z AUTO 22008KT 10SM BKN026 26/23 A2997 RMK AO2 SLP148 T02560228
KPVD 120551Z AUTO 20007KT 10SM BKN018 25/23 A2998 RMK AO2 SLP150 T02500233 10261 20250 50001
KPVD 120451Z AUTO 19007KT 10SM BKN018 26/23 A2998 RMK AO2 SLP151 T02560228 403390228
KPVD 120351Z 19009KT 10SM BKN016 BKN023 26/23 A2998 RMK AO2 SLP151 LAST T02560233
KPVD 120251Z 20006KT 10SM BKN017 25/23 A2998 RMK AO2 SLP150 T02500233 51006
KPVD 120158Z 20008KT 10SM FEW017 26/23 A2997 RMK AO2 T02560228
KPVD 120151Z 21008KT 10SM BKN020 26/23 A2997 RMK AO2 SLP149 T02560228
KPVD 120051Z 21008KT 10SM BKN017 26/23 A2997 RMK AO2 SLP147 T02560228
KPVD 112351Z 20008KT 10SM FEW020 SCT250 27/21 A2996 RMK AO2 SLP144 T02670211 10339 20267 53006
KPVD 112251Z 21011KT 10SM FEW037 SCT250 29/19 A2994 RMK AO2 SLP139 T02890189
KPVD 112151Z 21015KT 10SM FEW037 SCT250 30/19 A2994 RMK AO2 SLP137 T03000194
KPVD 112051Z 22013G20KT 10SM FEW037 SCT250 32/22 A2994 RMK AO2 PK WND 17028/2007 SLP138 T03170217 55005
KPVD 111951Z 21013KT 10SM FEW050 BKN250 33/22 A2994 RMK AO2 SLP137 T03330222
KPVD 111851Z 17013G21KT 10SM FEW050 BKN250 33/23 A2995 RMK AO2 PK WND 17033/1810 SLP141 T03280228
KPVD 111751Z 20012G22KT 10SM SCT055CB BKN300 33/22 A2996 RMK AO2 SLP143 CB NE MOV NE TCU SW-NW-N VIRGA N T03330222 10333 20244 56013
KPVD 111651Z 15014KT 10SM FEW049CB SCT065 BKN300 32/24 A2996 RMK AO2 LTG DSNT NE SLP145 CB N MOV E VIRGA N T03170244
KPVD 111551Z 16011KT 10SM FEW025 SCT046TCU BKN300 30/24 A2998 RMK AO2 SLP152 TCU ALQDS T03000239
KPVD 111451Z 14007KT 10SM FEW020 BKN300 30/24 A2999 RMK AO2 SLP156 T03000239 53001
KPVD 111351Z 14006KT 10SM BKN300 29/24 A2999 RMK AO2 SLP156 T02890239
KPVD 111251Z 20004KT 10SM FEW015 BKN300 27/23 A2999 RMK AO2 SLP155 T02670228
KPVD 111151Z 19005KT 10SM FEW009 BKN300 24/22 A2999 RMK AO2 SLP155 T02440222 10244 20228 51009
KPVD 111051Z 18004KT 10SM FEW005 FEW065 SCT300 23/22 A2999 RMK AO2 SLP153 T02330222
KPVD 111010Z 18003KT 10SM SCT009 BKN300 23/22 A2998 RMK AO2 T02280222
KPVD 111001Z 20004KT 10SM BKN009 BKN300 23/22 A2998 RMK AO2 T02280222
KPVD 110951Z 19004KT 10SM BKN010 BKN300 23/22 A2998 RMK AO2 SLP151 T02280222
KPVD 110851Z 19004KT 10SM CLR 23/22 A2997 RMK AO2 SLP146 T02330222 53001
KPVD 110751Z 22005KT 10SM SCT009 23/22 A2996 RMK AO2 SLP145 T02330222
KPVD 110749Z 22005KT 10SM SCT009 23/22 A2996 RMK AO2
KPVD 110651Z 20005KT 10SM CLR 24/22 A2996 RMK AO2 SLP145 T02390222
KPVD 110551Z 20006KT 10SM CLR 24/22 A2997 RMK AO2 SLP146 T02390222 10283 20233 58001
KPVD 110451Z 19006KT 10SM CLR 24/22 A2997 RMK AO2 SLP147 T02440222 403390217
KPVD 110351Z 22005KT 10SM SCT090 SCT120 BKN250 26/22 A2997 RMK AO2 SLP149 LAST T02560222
KPVD 110251Z 23005KT 10SM BKN090 BKN120 BKN250 26/22 A2997 RMK AO2 SLP148 T02610217 50006
KPVD 110151Z COR 23005KT 10SM BKN070 BKN250 27/22 A2998 RMK AO2 SLP151 T02670217
KPVD 110051Z 24007KT 10SM FEW050 BKN250 27/20 A2997 RMK AO2 SLP147 T02720200
KPVD 102351Z 22008KT 10SM FEW050 BKN250 28/21 A2995 RMK AO2 SLP142 T02830206 10339 20283 53003
KPVD 102251Z 21010KT 10SM FEW050 SCT250 30/21 A2995 RMK AO2 SLP140 T03000206
KPVD 102151Z 21016G21KT 10SM FEW050 FEW250 32/21 A2994 RMK AO2 SLP138 T03170206
KPVD 102051Z 22014KT 10SM FEW050 33/21 A2994 RMK AO2 SLP138 T03330206 56014
KPVD 101951Z 21015KT 10SM SCT050 SCT070 34/21 A2995 RMK AO2 SLP142 T03390206
KPVD 101851Z 16011KT 10SM BKN065 BKN075 32/22 A2997 RMK AO2 SLP147 T03170217
KPVD 101751Z 16011KT 10SM SCT060 BKN080 29/23 A2998 RMK AO2 SLP152 T02940228 10322 20250 56013